RYR79JM EGPK-LEBL
Flight info
| Callsign | RYR79JM |
|---|---|
| Flight time | N/A |
| Altitude | 37000 |
| Route | SUDBY Z249 OSMEG T256 DCS DCT AKOMU DCT VAMEB UL612 HON DCT SITET UN859 SOPIL DCT BALAN DCT EVPOK DCT NARAK DCT GAI DCT LOMRA DCT ROCAN DCT PUMAL |
| Aircraft | B738/M-SDE2E3FGHIRWXY/LB1 |
Departure
| Time | 2026-04-22 11:50 |
|---|---|
| Airport | Glasgow Prestwick Airport (EGPK) |
Arrival
| Time | N/A |
|---|---|
| Airport | Josep Tarradellas Barcelona-El Prat Airport (LEBL) |
| Time | Latitude | Longitude | Altitude | Speed | Heading |
|---|---|---|---|---|---|
| 2026-04-22 11:26 | 55.51143 | -4.60893 | 47 ft | 0 kts | 300° |
| 2026-04-22 11:47 | 55.51152 | -4.60920 | 46 ft | 7 kts | 300° |
| 2026-04-22 11:47 | 55.51197 | -4.60922 | 45 ft | 8 kts | 42° |
| 2026-04-22 11:47 | 55.51245 | -4.60928 | 47 ft | 8 kts | 310° |
| 2026-04-22 11:48 | 55.51304 | -4.61092 | 46 ft | 23 kts | 301° |
| 2026-04-22 11:48 | 55.51394 | -4.61354 | 42 ft | 25 kts | 301° |
| 2026-04-22 11:48 | 55.51513 | -4.61518 | 47 ft | 19 kts | 342° |
| 2026-04-22 11:48 | 55.51611 | -4.61425 | 46 ft | 19 kts | 89° |
| 2026-04-22 11:49 | 55.51549 | -4.61222 | 44 ft | 22 kts | 121° |
| 2026-04-22 11:49 | 55.51381 | -4.60736 | 48 ft | 78 kts | 121° |
| 2026-04-22 11:49 | 55.50994 | -4.59615 | 56 ft | 133 kts | 121° |
| 2026-04-22 11:49 | 55.50453 | -4.58094 | 366 ft | 153 kts | 123° |
| 2026-04-22 11:50 | 55.49849 | -4.56530 | 1060 ft | 153 kts | 118° |
| 2026-04-22 11:50 | 55.49286 | -4.54881 | 1628 ft | 168 kts | 116° |
| 2026-04-22 11:50 | 55.48650 | -4.52958 | 1902 ft | 193 kts | 117° |
| 2026-04-22 11:50 | 55.47915 | -4.50818 | 2250 ft | 211 kts | 119° |
| 2026-04-22 11:51 | 55.47101 | -4.48513 | 2519 ft | 232 kts | 121° |
| 2026-04-22 11:51 | 55.46221 | -4.46085 | 3033 ft | 238 kts | 121° |
| 2026-04-22 11:51 | 55.45216 | -4.43716 | 3004 ft | 242 kts | 135° |
| 2026-04-22 11:51 | 55.43794 | -4.42076 | 3017 ft | 244 kts | 147° |
| 2026-04-22 11:52 | 55.42317 | -4.40620 | 3035 ft | 243 kts | 146° |
| 2026-04-22 11:52 | 55.40870 | -4.39076 | 3004 ft | 242 kts | 145° |
| 2026-04-22 11:52 | 55.39452 | -4.37515 | 2988 ft | 240 kts | 144° |
| 2026-04-22 11:52 | 55.38037 | -4.35995 | 3056 ft | 237 kts | 146° |
| 2026-04-22 11:53 | 55.36618 | -4.34469 | 3421 ft | 242 kts | 145° |
| 2026-04-22 11:53 | 55.35197 | -4.32913 | 4322 ft | 240 kts | 145° |
| 2026-04-22 11:53 | 55.33774 | -4.31351 | 5066 ft | 245 kts | 147° |
| 2026-04-22 11:53 | 55.32326 | -4.29776 | 5760 ft | 243 kts | 147° |
| 2026-04-22 11:54 | 55.30852 | -4.28208 | 5998 ft | 253 kts | 148° |
| 2026-04-22 11:54 | 55.29347 | -4.26566 | 6433 ft | 255 kts | 147° |
| 2026-04-22 11:54 | 55.27849 | -4.24930 | 7219 ft | 255 kts | 147° |
| 2026-04-22 11:54 | 55.26358 | -4.23311 | 8131 ft | 252 kts | 147° |
| 2026-04-22 11:55 | 55.24868 | -4.21687 | 8786 ft | 255 kts | 147° |
| 2026-04-22 11:55 | 55.23322 | -4.20089 | 9450 ft | 260 kts | 148° |
| 2026-04-22 11:55 | 55.21765 | -4.18398 | 10118 ft | 266 kts | 147° |
| 2026-04-22 11:55 | 55.20205 | -4.16688 | 10883 ft | 267 kts | 148° |
| 2026-04-22 11:56 | 55.18563 | -4.14903 | 11082 ft | 289 kts | 148° |
| 2026-04-22 11:56 | 55.16799 | -4.13001 | 11325 ft | 306 kts | 148° |
| 2026-04-22 11:56 | 55.14959 | -4.11016 | 11868 ft | 313 kts | 147° |
| 2026-04-22 11:56 | 55.13228 | -4.08647 | 12446 ft | 321 kts | 136° |
| 2026-04-22 11:57 | 55.12700 | -4.07706 | 12656 ft | 322 kts | 134° |
| 2026-04-22 11:57 | 55.07041 | -3.97204 | 15417 ft | 327 kts | 135° |
| 2026-04-22 11:58 | 55.05455 | -3.94290 | 15951 ft | 335 kts | 135° |
| 2026-04-22 11:58 | 55.03830 | -3.91316 | 16576 ft | 340 kts | 135° |
| 2026-04-22 11:58 | 55.02184 | -3.88312 | 17175 ft | 346 kts | 135° |
| 2026-04-22 11:58 | 55.00516 | -3.85273 | 17797 ft | 351 kts | 135° |
| 2026-04-22 11:59 | 54.98807 | -3.82164 | 18321 ft | 358 kts | 135° |
| 2026-04-22 11:59 | 54.97085 | -3.79034 | 19025 ft | 358 kts | 136° |
| 2026-04-22 11:59 | 54.95357 | -3.75901 | 19597 ft | 361 kts | 136° |
| 2026-04-22 11:59 | 54.93605 | -3.72728 | 20084 ft | 368 kts | 136° |
| 2026-04-22 12:00 | 54.91807 | -3.69468 | 20432 ft | 377 kts | 136° |
| 2026-04-22 12:00 | 54.89973 | -3.66144 | 20830 ft | 385 kts | 137° |
| 2026-04-22 12:00 | 54.88099 | -3.62749 | 21201 ft | 393 kts | 137° |
| 2026-04-22 12:00 | 54.86187 | -3.59289 | 21633 ft | 399 kts | 136° |
| 2026-04-22 12:01 | 54.84249 | -3.55782 | 22091 ft | 405 kts | 136° |
| 2026-04-22 12:01 | 54.83619 | -3.54643 | 22282 ft | 405 kts | 136° |